sensor_id;sensor_type;location;lat;lon;timestamp;P1;durP1;ratioP1;P2;durP2;ratioP2
71639;SDS011;60912;48.968;10.124;2022-09-09T00:01:05;3.20;;;1.25;;
71639;SDS011;60912;48.968;10.124;2022-09-09T00:03:56;4.40;;;1.50;;
71639;SDS011;60912;48.968;10.124;2022-09-09T00:06:28;5.87;;;1.40;;
71639;SDS011;60912;48.968;10.124;2022-09-09T00:09:01;3.35;;;1.60;;
71639;SDS011;60912;48.968;10.124;2022-09-09T00:11:36;3.97;;;1.30;;
71639;SDS011;60912;48.968;10.124;2022-09-09T00:14:13;5.20;;;1.40;;
71639;SDS011;60912;48.968;10.124;2022-09-09T00:16:49;4.38;;;1.45;;
71639;SDS011;60912;48.968;10.124;2022-09-09T00:22:22;4.50;;;1.40;;
71639;SDS011;60912;48.968;10.124;2022-09-09T00:32:43;3.40;;;1.80;;
71639;SDS011;60912;48.968;10.124;2022-09-09T00:37:34;5.70;;;1.37;;
71639;SDS011;60912;48.968;10.124;2022-09-09T00:40:01;4.80;;;1.10;;
71639;SDS011;60912;48.968;10.124;2022-09-09T00:42:42;5.90;;;1.20;;
71639;SDS011;60912;48.968;10.124;2022-09-09T00:45:28;6.50;;;1.42;;
71639;SDS011;60912;48.968;10.124;2022-09-09T00:47:59;4.32;;;1.20;;
71639;SDS011;60912;48.968;10.124;2022-09-09T00:56:21;4.78;;;1.48;;
71639;SDS011;60912;48.968;10.124;2022-09-09T00:59:02;4.63;;;1.20;;
71639;SDS011;60912;48.968;10.124;2022-09-09T01:01:37;7.47;;;1.55;;
71639;SDS011;60912;48.968;10.124;2022-09-09T01:04:05;3.80;;;1.50;;
71639;SDS011;60912;48.968;10.124;2022-09-09T01:06:41;5.10;;;1.40;;
71639;SDS011;60912;48.968;10.124;2022-09-09T01:12:01;5.50;;;1.73;;
71639;SDS011;60912;48.968;10.124;2022-09-09T01:27:50;4.82;;;1.40;;
71639;SDS011;60912;48.968;10.124;2022-09-09T01:30:17;5.47;;;1.50;;
71639;SDS011;60912;48.968;10.124;2022-09-09T01:32:44;4.53;;;1.37;;
71639;SDS011;60912;48.968;10.124;2022-09-09T01:35:15;4.43;;;1.50;;
71639;SDS011;60912;48.968;10.124;2022-09-09T01:37:52;10.98;;;1.65;;
71639;SDS011;60912;48.968;10.124;2022-09-09T01:40:17;4.13;;;1.50;;
71639;SDS011;60912;48.968;10.124;2022-09-09T01:42:43;3.45;;;1.30;;
71639;SDS011;60912;48.968;10.124;2022-09-09T01:45:08;6.13;;;1.47;;
71639;SDS011;60912;48.968;10.124;2022-09-09T01:47:34;6.07;;;1.25;;
71639;SDS011;60912;48.968;10.124;2022-09-09T01:50:00;3.17;;;1.40;;
71639;SDS011;60912;48.968;10.124;2022-09-09T01:52:27;7.47;;;1.63;;
71639;SDS011;60912;48.968;10.124;2022-09-09T01:54:54;3.33;;;1.40;;
71639;SDS011;60912;48.968;10.124;2022-09-09T02:02:38;5.43;;;1.50;;
71639;SDS011;60912;48.968;10.124;2022-09-09T02:05:18;3.15;;;1.23;;
71639;SDS011;60912;48.968;10.124;2022-09-09T02:07:53;5.90;;;1.37;;
71639;SDS011;60912;48.968;10.124;2022-09-09T02:10:50;2.63;;;1.10;;
71639;SDS011;60912;48.968;10.124;2022-09-09T02:13:25;5.25;;;1.45;;
71639;SDS011;60912;48.968;10.124;2022-09-09T02:21:18;6.30;;;1.60;;
71639;SDS011;60912;48.968;10.124;2022-09-09T02:23:43;3.27;;;1.40;;
71639;SDS011;60912;48.968;10.124;2022-09-09T02:26:12;3.20;;;1.38;;
71639;SDS011;60912;48.968;10.124;2022-09-09T02:28:44;3.45;;;1.50;;
71639;SDS011;60912;48.968;10.124;2022-09-09T02:31:10;3.58;;;1.50;;
71639;SDS011;60912;48.968;10.124;2022-09-09T02:33:38;3.93;;;1.30;;
71639;SDS011;60912;48.968;10.124;2022-09-09T02:36:08;4.13;;;1.40;;
71639;SDS011;60912;48.968;10.124;2022-09-09T02:38:37;5.47;;;1.27;;
71639;SDS011;60912;48.968;10.124;2022-09-09T02:41:10;3.92;;;1.10;;
71639;SDS011;60912;48.968;10.124;2022-09-09T02:43:36;2.90;;;1.30;;
71639;SDS011;60912;48.968;10.124;2022-09-09T02:51:51;4.27;;;1.47;;
71639;SDS011;60912;48.968;10.124;2022-09-09T02:56:55;3.28;;;1.20;;
71639;SDS011;60912;48.968;10.124;2022-09-09T02:59:33;3.28;;;1.35;;
71639;SDS011;60912;48.968;10.124;2022-09-09T03:01:59;3.23;;;1.30;;
71639;SDS011;60912;48.968;10.124;2022-09-09T03:04:24;3.47;;;1.50;;
71639;SDS011;60912;48.968;10.124;2022-09-09T03:06:50;3.33;;;1.23;;
71639;SDS011;60912;48.968;10.124;2022-09-09T03:09:15;4.90;;;1.40;;
71639;SDS011;60912;48.968;10.124;2022-09-09T03:11:41;4.73;;;1.40;;
71639;SDS011;60912;48.968;10.124;2022-09-09T03:14:06;5.88;;;1.33;;
71639;SDS011;60912;48.968;10.124;2022-09-09T03:16:33;5.47;;;1.30;;
71639;SDS011;60912;48.968;10.124;2022-09-09T03:18:59;4.57;;;1.90;;
71639;SDS011;60912;48.968;10.124;2022-09-09T03:21:25;4.47;;;1.45;;
71639;SDS011;60912;48.968;10.124;2022-09-09T03:23:50;8.67;;;1.60;;
71639;SDS011;60912;48.968;10.124;2022-09-09T03:26:16;5.40;;;1.80;;
71639;SDS011;60912;48.968;10.124;2022-09-09T03:28:41;5.37;;;1.60;;
71639;SDS011;60912;48.968;10.124;2022-09-09T03:31:07;8.07;;;1.40;;
71639;SDS011;60912;48.968;10.124;2022-09-09T03:33:35;2.97;;;1.10;;
71639;SDS011;60912;48.968;10.124;2022-09-09T03:36:02;2.60;;;1.20;;
71639;SDS011;60912;48.968;10.124;2022-09-09T03:38:28;3.67;;;1.23;;
71639;SDS011;60912;48.968;10.124;2022-09-09T03:40:54;3.72;;;1.15;;
71639;SDS011;60912;48.968;10.124;2022-09-09T03:43:21;2.93;;;1.10;;
71639;SDS011;60912;48.968;10.124;2022-09-09T03:45:47;5.68;;;1.25;;
71639;SDS011;60912;48.968;10.124;2022-09-09T03:48:13;3.45;;;1.30;;
71639;SDS011;60912;48.968;10.124;2022-09-09T03:50:43;3.72;;;1.30;;
71639;SDS011;60912;48.968;10.124;2022-09-09T03:53:12;3.60;;;1.30;;
71639;SDS011;60912;48.968;10.124;2022-09-09T03:55:37;6.33;;;1.23;;
71639;SDS011;60912;48.968;10.124;2022-09-09T03:58:03;4.67;;;1.30;;
71639;SDS011;60912;48.968;10.124;2022-09-09T04:00:28;3.72;;;1.30;;
71639;SDS011;60912;48.968;10.124;2022-09-09T04:02:57;3.17;;;1.30;;
71639;SDS011;60912;48.968;10.124;2022-09-09T04:05:23;4.45;;;1.17;;
71639;SDS011;60912;48.968;10.124;2022-09-09T04:07:48;4.50;;;1.50;;
71639;SDS011;60912;48.968;10.124;2022-09-09T04:10:13;3.67;;;1.30;;
71639;SDS011;60912;48.968;10.124;2022-09-09T04:12:40;7.70;;;1.30;;
71639;SDS011;60912;48.968;10.124;2022-09-09T04:15:06;5.07;;;1.35;;
71639;SDS011;60912;48.968;10.124;2022-09-09T04:17:32;4.53;;;1.30;;
71639;SDS011;60912;48.968;10.124;2022-09-09T04:19:58;3.03;;;1.20;;
71639;SDS011;60912;48.968;10.124;2022-09-09T04:22:23;3.42;;;1.10;;
71639;SDS011;60912;48.968;10.124;2022-09-09T04:24:48;5.57;;;1.30;;
71639;SDS011;60912;48.968;10.124;2022-09-09T04:27:14;2.47;;;1.07;;
71639;SDS011;60912;48.968;10.124;2022-09-09T04:29:39;4.57;;;1.20;;
71639;SDS011;60912;48.968;10.124;2022-09-09T04:32:05;5.32;;;1.38;;
71639;SDS011;60912;48.968;10.124;2022-09-09T04:34:30;3.90;;;1.10;;
71639;SDS011;60912;48.968;10.124;2022-09-09T04:36:56;4.50;;;1.50;;
71639;SDS011;60912;48.968;10.124;2022-09-09T04:39:22;4.30;;;1.35;;
71639;SDS011;60912;48.968;10.124;2022-09-09T04:41:47;4.23;;;1.30;;
71639;SDS011;60912;48.968;10.124;2022-09-09T04:44:13;4.50;;;1.30;;
71639;SDS011;60912;48.968;10.124;2022-09-09T04:46:38;3.17;;;1.27;;
71639;SDS011;60912;48.968;10.124;2022-09-09T04:49:05;4.95;;;1.40;;
71639;SDS011;60912;48.968;10.124;2022-09-09T04:51:30;4.97;;;1.30;;
71639;SDS011;60912;48.968;10.124;2022-09-09T04:53:56;5.72;;;1.50;;
71639;SDS011;60912;48.968;10.124;2022-09-09T04:56:21;4.67;;;1.30;;
71639;SDS011;60912;48.968;10.124;2022-09-09T04:58:47;3.60;;;1.47;;
71639;SDS011;60912;48.968;10.124;2022-09-09T05:01:14;4.07;;;1.20;;
71639;SDS011;60912;48.968;10.124;2022-09-09T05:03:49;3.75;;;1.50;;
71639;SDS011;60912;48.968;10.124;2022-09-09T05:06:16;4.97;;;1.10;;
71639;SDS011;60912;48.968;10.124;2022-09-09T05:08:44;4.68;;;1.45;;
71639;SDS011;60912;48.968;10.124;2022-09-09T05:11:16;4.15;;;1.30;;
71639;SDS011;60912;48.968;10.124;2022-09-09T05:13:44;2.90;;;1.27;;
71639;SDS011;60912;48.968;10.124;2022-09-09T05:16:10;4.80;;;1.30;;
71639;SDS011;60912;48.968;10.124;2022-09-09T05:18:40;2.50;;;1.10;;
71639;SDS011;60912;48.968;10.124;2022-09-09T05:21:06;5.90;;;1.30;;
71639;SDS011;60912;48.968;10.124;2022-09-09T05:23:33;5.67;;;1.47;;
71639;SDS011;60912;48.968;10.124;2022-09-09T05:25:59;4.38;;;1.33;;
71639;SDS011;60912;48.968;10.124;2022-09-09T05:28:25;9.00;;;1.30;;
71639;SDS011;60912;48.968;10.124;2022-09-09T05:31:04;3.80;;;1.17;;
71639;SDS011;60912;48.968;10.124;2022-09-09T05:33:33;4.85;;;1.27;;
71639;SDS011;60912;48.968;10.124;2022-09-09T05:36:00;4.53;;;1.27;;
71639;SDS011;60912;48.968;10.124;2022-09-09T05:38:27;8.77;;;1.30;;
71639;SDS011;60912;48.968;10.124;2022-09-09T05:40:54;2.90;;;1.20;;
71639;SDS011;60912;48.968;10.124;2022-09-09T05:43:21;6.18;;;1.40;;
71639;SDS011;60912;48.968;10.124;2022-09-09T05:45:47;5.55;;;1.40;;
71639;SDS011;60912;48.968;10.124;2022-09-09T05:48:14;3.43;;;1.17;;
71639;SDS011;60912;48.968;10.124;2022-09-09T05:50:43;4.10;;;1.30;;
71639;SDS011;60912;48.968;10.124;2022-09-09T05:53:10;5.90;;;1.20;;
71639;SDS011;60912;48.968;10.124;2022-09-09T05:55:35;4.00;;;0.90;;
71639;SDS011;60912;48.968;10.124;2022-09-09T05:58:01;2.83;;;0.98;;
71639;SDS011;60912;48.968;10.124;2022-09-09T06:00:26;3.33;;;0.90;;
71639;SDS011;60912;48.968;10.124;2022-09-09T06:02:52;5.17;;;0.90;;
71639;SDS011;60912;48.968;10.124;2022-09-09T06:05:18;3.63;;;1.10;;
71639;SDS011;60912;48.968;10.124;2022-09-09T06:07:44;3.30;;;1.10;;
71639;SDS011;60912;48.968;10.124;2022-09-09T06:10:10;5.17;;;1.30;;
71639;SDS011;60912;48.968;10.124;2022-09-09T06:12:38;5.43;;;1.10;;
71639;SDS011;60912;48.968;10.124;2022-09-09T06:15:04;3.45;;;1.00;;
71639;SDS011;60912;48.968;10.124;2022-09-09T06:17:30;4.10;;;1.10;;
71639;SDS011;60912;48.968;10.124;2022-09-09T06:19:55;4.47;;;1.10;;
71639;SDS011;60912;48.968;10.124;2022-09-09T06:22:21;4.33;;;0.90;;
71639;SDS011;60912;48.968;10.124;2022-09-09T06:24:46;3.83;;;0.97;;
71639;SDS011;60912;48.968;10.124;2022-09-09T06:27:12;5.30;;;1.20;;
71639;SDS011;60912;48.968;10.124;2022-09-09T06:29:38;3.07;;;1.20;;
71639;SDS011;60912;48.968;10.124;2022-09-09T06:32:04;4.15;;;1.30;;
71639;SDS011;60912;48.968;10.124;2022-09-09T06:34:30;7.17;;;1.23;;
71639;SDS011;60912;48.968;10.124;2022-09-09T06:36:55;4.10;;;1.10;;
71639;SDS011;60912;48.968;10.124;2022-09-09T06:39:22;7.57;;;1.47;;
71639;SDS011;60912;48.968;10.124;2022-09-09T06:41:48;5.20;;;1.50;;
71639;SDS011;60912;48.968;10.124;2022-09-09T06:44:14;4.10;;;1.20;;
71639;SDS011;60912;48.968;10.124;2022-09-09T06:46:40;5.00;;;1.20;;
71639;SDS011;60912;48.968;10.124;2022-09-09T06:49:07;3.92;;;1.30;;
71639;SDS011;60912;48.968;10.124;2022-09-09T06:51:34;7.78;;;1.70;;
71639;SDS011;60912;48.968;10.124;2022-09-09T06:54:01;5.38;;;1.38;;
71639;SDS011;60912;48.968;10.124;2022-09-09T06:56:28;3.63;;;1.20;;
71639;SDS011;60912;48.968;10.124;2022-09-09T06:58:56;5.47;;;1.15;;
71639;SDS011;60912;48.968;10.124;2022-09-09T07:01:26;5.63;;;1.48;;
71639;SDS011;60912;48.968;10.124;2022-09-09T07:03:55;4.75;;;1.15;;
71639;SDS011;60912;48.968;10.124;2022-09-09T07:06:24;4.07;;;1.23;;
71639;SDS011;60912;48.968;10.124;2022-09-09T07:08:56;5.50;;;1.30;;
71639;SDS011;60912;48.968;10.124;2022-09-09T07:11:24;5.65;;;1.55;;
71639;SDS011;60912;48.968;10.124;2022-09-09T07:13:54;11.00;;;1.40;;
71639;SDS011;60912;48.968;10.124;2022-09-09T07:16:20;4.90;;;1.13;;
71639;SDS011;60912;48.968;10.124;2022-09-09T07:18:50;3.83;;;1.10;;
71639;SDS011;60912;48.968;10.124;2022-09-09T07:21:17;4.00;;;1.17;;
71639;SDS011;60912;48.968;10.124;2022-09-09T07:23:43;4.45;;;1.10;;
71639;SDS011;60912;48.968;10.124;2022-09-09T07:26:13;4.63;;;1.20;;
71639;SDS011;60912;48.968;10.124;2022-09-09T07:28:40;5.10;;;1.10;;
71639;SDS011;60912;48.968;10.124;2022-09-09T07:31:07;9.48;;;1.40;;
71639;SDS011;60912;48.968;10.124;2022-09-09T07:33:38;3.72;;;1.20;;
71639;SDS011;60912;48.968;10.124;2022-09-09T07:36:07;5.72;;;1.10;;
71639;SDS011;60912;48.968;10.124;2022-09-09T07:38:41;3.70;;;1.00;;
71639;SDS011;60912;48.968;10.124;2022-09-09T07:41:10;3.85;;;0.95;;
71639;SDS011;60912;48.968;10.124;2022-09-09T07:43:39;4.63;;;1.00;;
71639;SDS011;60912;48.968;10.124;2022-09-09T07:46:05;5.40;;;1.17;;
71639;SDS011;60912;48.968;10.124;2022-09-09T07:48:31;4.15;;;1.25;;
71639;SDS011;60912;48.968;10.124;2022-09-09T07:51:10;4.57;;;1.23;;
71639;SDS011;60912;48.968;10.124;2022-09-09T07:53:40;4.38;;;1.13;;
71639;SDS011;60912;48.968;10.124;2022-09-09T07:56:06;4.43;;;0.90;;
71639;SDS011;60912;48.968;10.124;2022-09-09T07:58:34;3.78;;;1.00;;
71639;SDS011;60912;48.968;10.124;2022-09-09T08:01:00;3.75;;;1.05;;
71639;SDS011;60912;48.968;10.124;2022-09-09T08:03:52;3.13;;;0.80;;
71639;SDS011;60912;48.968;10.124;2022-09-09T08:06:24;2.92;;;1.10;;
71639;SDS011;60912;48.968;10.124;2022-09-09T08:08:51;7.10;;;0.85;;
71639;SDS011;60912;48.968;10.124;2022-09-09T08:11:18;3.30;;;0.80;;
71639;SDS011;60912;48.968;10.124;2022-09-09T08:13:43;4.65;;;0.93;;
71639;SDS011;60912;48.968;10.124;2022-09-09T08:16:14;4.40;;;0.90;;
71639;SDS011;60912;48.968;10.124;2022-09-09T08:18:46;3.92;;;0.90;;
71639;SDS011;60912;48.968;10.124;2022-09-09T08:21:13;3.28;;;0.80;;
71639;SDS011;60912;48.968;10.124;2022-09-09T08:23:42;2.63;;;0.70;;
71639;SDS011;60912;48.968;10.124;2022-09-09T08:28:40;4.07;;;0.98;;
71639;SDS011;60912;48.968;10.124;2022-09-09T08:31:10;3.33;;;0.73;;
71639;SDS011;60912;48.968;10.124;2022-09-09T08:33:36;3.15;;;0.98;;
71639;SDS011;60912;48.968;10.124;2022-09-09T08:36:03;5.03;;;0.90;;
71639;SDS011;60912;48.968;10.124;2022-09-09T08:38:29;4.27;;;1.00;;
71639;SDS011;60912;48.968;10.124;2022-09-09T08:40:57;3.70;;;0.80;;
71639;SDS011;60912;48.968;10.124;2022-09-09T08:43:32;3.75;;;0.90;;
71639;SDS011;60912;48.968;10.124;2022-09-09T08:49:03;3.40;;;0.80;;
71639;SDS011;60912;48.968;10.124;2022-09-09T08:51:30;4.55;;;0.90;;
71639;SDS011;60912;48.968;10.124;2022-09-09T08:53:58;3.72;;;1.02;;
71639;SDS011;60912;48.968;10.124;2022-09-09T08:56:27;3.17;;;0.90;;
71639;SDS011;60912;48.968;10.124;2022-09-09T08:58:54;5.30;;;0.90;;
71639;SDS011;60912;48.968;10.124;2022-09-09T09:11:40;4.47;;;0.85;;
71639;SDS011;60912;48.968;10.124;2022-09-09T09:14:22;6.53;;;1.05;;
71639;SDS011;60912;48.968;10.124;2022-09-09T09:19:40;4.78;;;1.73;;
71639;SDS011;60912;48.968;10.124;2022-09-09T09:24:53;5.25;;;1.52;;
71639;SDS011;60912;48.968;10.124;2022-09-09T09:28:23;7.78;;;1.70;;
71639;SDS011;60912;48.968;10.124;2022-09-09T09:30:39;16.40;;;6.33;;
71639;SDS011;60912;48.968;10.124;2022-09-09T09:33:32;6.82;;;2.40;;
71639;SDS011;60912;48.968;10.124;2022-09-09T09:35:59;4.68;;;1.02;;
71639;SDS011;60912;48.968;10.124;2022-09-09T09:38:26;3.97;;;1.07;;
71639;SDS011;60912;48.968;10.124;2022-09-09T09:40:57;3.58;;;1.05;;
71639;SDS011;60912;48.968;10.124;2022-09-09T09:45:57;5.55;;;1.10;;
71639;SDS011;60912;48.968;10.124;2022-09-09T09:48:23;2.67;;;0.80;;
71639;SDS011;60912;48.968;10.124;2022-09-09T09:53:22;4.65;;;0.90;;
71639;SDS011;60912;48.968;10.124;2022-09-09T09:55:53;3.72;;;1.10;;
71639;SDS011;60912;48.968;10.124;2022-09-09T09:58:30;4.35;;;1.02;;
71639;SDS011;60912;48.968;10.124;2022-09-09T10:00:59;3.37;;;1.00;;
71639;SDS011;60912;48.968;10.124;2022-09-09T10:05:54;4.75;;;1.00;;
71639;SDS011;60912;48.968;10.124;2022-09-09T10:08:21;4.47;;;1.02;;
71639;SDS011;60912;48.968;10.124;2022-09-09T10:35:29;4.93;;;0.98;;
71639;SDS011;60912;48.968;10.124;2022-09-09T10:38:05;3.47;;;1.00;;
71639;SDS011;60912;48.968;10.124;2022-09-09T10:51:30;4.30;;;1.00;;
71639;SDS011;60912;48.968;10.124;2022-09-09T10:59:51;4.95;;;0.98;;
71639;SDS011;60912;48.968;10.124;2022-09-09T11:07:46;3.93;;;1.20;;
71639;SDS011;60912;48.968;10.124;2022-09-09T11:12:43;5.20;;;1.08;;
71639;SDS011;60912;48.968;10.124;2022-09-09T11:15:14;3.33;;;1.07;;
71639;SDS011;60912;48.968;10.124;2022-09-09T11:17:46;4.38;;;1.17;;
71639;SDS011;60912;48.968;10.124;2022-09-09T11:20:16;5.00;;;1.10;;
71639;SDS011;60912;48.968;10.124;2022-09-09T11:25:23;4.82;;;1.00;;
71639;SDS011;60912;48.968;10.124;2022-09-09T11:44:39;6.45;;;1.20;;
71639;SDS011;60912;48.968;10.124;2022-09-09T11:47:20;4.07;;;1.10;;
71639;SDS011;60912;48.968;10.124;2022-09-09T11:49:48;5.63;;;1.07;;
71639;SDS011;60912;48.968;10.124;2022-09-09T11:52:24;4.45;;;1.05;;
71639;SDS011;60912;48.968;10.124;2022-09-09T11:54:52;4.75;;;1.00;;
71639;SDS011;60912;48.968;10.124;2022-09-09T11:57:24;3.10;;;0.90;;
71639;SDS011;60912;48.968;10.124;2022-09-09T11:59:55;5.60;;;1.00;;
71639;SDS011;60912;48.968;10.124;2022-09-09T12:02:25;5.80;;;1.10;;
71639;SDS011;60912;48.968;10.124;2022-09-09T12:04:57;5.03;;;1.00;;
71639;SDS011;60912;48.968;10.124;2022-09-09T12:12:22;2.83;;;0.87;;
71639;SDS011;60912;48.968;10.124;2022-09-09T12:17:27;2.50;;;0.80;;
71639;SDS011;60912;48.968;10.124;2022-09-09T12:20:09;5.43;;;0.90;;
71639;SDS011;60912;48.968;10.124;2022-09-09T12:28:24;3.97;;;0.80;;
71639;SDS011;60912;48.968;10.124;2022-09-09T12:31:04;3.63;;;0.90;;
71639;SDS011;60912;48.968;10.124;2022-09-09T12:33:48;5.32;;;0.80;;
71639;SDS011;60912;48.968;10.124;2022-09-09T12:36:18;2.97;;;0.80;;
71639;SDS011;60912;48.968;10.124;2022-09-09T12:38:46;3.05;;;0.85;;
71639;SDS011;60912;48.968;10.124;2022-09-09T12:41:24;4.63;;;0.77;;
71639;SDS011;60912;48.968;10.124;2022-09-09T12:43:51;2.55;;;0.77;;
71639;SDS011;60912;48.968;10.124;2022-09-09T12:49:01;2.53;;;0.73;;
71639;SDS011;60912;48.968;10.124;2022-09-09T12:51:29;4.40;;;1.10;;
71639;SDS011;60912;48.968;10.124;2022-09-09T12:53:56;4.75;;;0.60;;
71639;SDS011;60912;48.968;10.124;2022-09-09T12:56:26;3.63;;;0.70;;
71639;SDS011;60912;48.968;10.124;2022-09-09T12:58:56;5.30;;;1.00;;
71639;SDS011;60912;48.968;10.124;2022-09-09T13:01:27;5.45;;;0.82;;
71639;SDS011;60912;48.968;10.124;2022-09-09T13:03:54;5.00;;;0.80;;
71639;SDS011;60912;48.968;10.124;2022-09-09T13:06:27;3.85;;;0.70;;
71639;SDS011;60912;48.968;10.124;2022-09-09T13:08:54;4.07;;;0.87;;
71639;SDS011;60912;48.968;10.124;2022-09-09T13:11:54;2.35;;;0.60;;
71639;SDS011;60912;48.968;10.124;2022-09-09T13:17:00;5.70;;;0.90;;
71639;SDS011;60912;48.968;10.124;2022-09-09T13:19:37;4.38;;;0.70;;
71639;SDS011;60912;48.968;10.124;2022-09-09T13:25:00;3.50;;;0.75;;
71639;SDS011;60912;48.968;10.124;2022-09-09T13:27:30;3.80;;;0.80;;
71639;SDS011;60912;48.968;10.124;2022-09-09T13:29:59;3.92;;;0.80;;
71639;SDS011;60912;48.968;10.124;2022-09-09T13:32:25;3.90;;;0.80;;
71639;SDS011;60912;48.968;10.124;2022-09-09T13:34:57;2.50;;;0.82;;
71639;SDS011;60912;48.968;10.124;2022-09-09T13:37:34;3.65;;;0.80;;
71639;SDS011;60912;48.968;10.124;2022-09-09T13:40:05;4.15;;;0.63;;
71639;SDS011;60912;48.968;10.124;2022-09-09T13:42:32;3.10;;;0.60;;
71639;SDS011;60912;48.968;10.124;2022-09-09T13:45:00;4.43;;;0.80;;
71639;SDS011;60912;48.968;10.124;2022-09-09T13:49:54;2.50;;;0.70;;
71639;SDS011;60912;48.968;10.124;2022-09-09T13:52:19;3.87;;;0.80;;
71639;SDS011;60912;48.968;10.124;2022-09-09T13:54:47;4.53;;;0.70;;
71639;SDS011;60912;48.968;10.124;2022-09-09T13:57:24;4.18;;;0.70;;
71639;SDS011;60912;48.968;10.124;2022-09-09T13:59:50;2.00;;;0.60;;
71639;SDS011;60912;48.968;10.124;2022-09-09T14:02:17;2.50;;;0.77;;
71639;SDS011;60912;48.968;10.124;2022-09-09T14:04:43;1.93;;;0.70;;
71639;SDS011;60912;48.968;10.124;2022-09-09T14:07:10;3.75;;;1.17;;
71639;SDS011;60912;48.968;10.124;2022-09-09T14:09:41;2.95;;;0.60;;
71639;SDS011;60912;48.968;10.124;2022-09-09T14:12:13;2.67;;;0.80;;
71639;SDS011;60912;48.968;10.124;2022-09-09T14:14:40;3.72;;;0.70;;
71639;SDS011;60912;48.968;10.124;2022-09-09T14:17:09;2.88;;;0.50;;
71639;SDS011;60912;48.968;10.124;2022-09-09T14:19:35;4.40;;;0.83;;
71639;SDS011;60912;48.968;10.124;2022-09-09T14:22:02;3.22;;;0.77;;
71639;SDS011;60912;48.968;10.124;2022-09-09T14:24:28;3.85;;;0.75;;
71639;SDS011;60912;48.968;10.124;2022-09-09T14:26:54;2.25;;;0.70;;
71639;SDS011;60912;48.968;10.124;2022-09-09T14:29:19;3.60;;;0.80;;
71639;SDS011;60912;48.968;10.124;2022-09-09T14:31:45;2.80;;;0.70;;
71639;SDS011;60912;48.968;10.124;2022-09-09T14:34:11;3.80;;;0.60;;
71639;SDS011;60912;48.968;10.124;2022-09-09T14:36:37;3.58;;;0.70;;
71639;SDS011;60912;48.968;10.124;2022-09-09T14:39:03;2.77;;;0.70;;
71639;SDS011;60912;48.968;10.124;2022-09-09T14:41:29;3.92;;;0.70;;
71639;SDS011;60912;48.968;10.124;2022-09-09T14:43:55;2.63;;;0.65;;
71639;SDS011;60912;48.968;10.124;2022-09-09T14:46:21;3.42;;;0.60;;
71639;SDS011;60912;48.968;10.124;2022-09-09T14:48:46;3.40;;;0.90;;
71639;SDS011;60912;48.968;10.124;2022-09-09T14:51:16;3.10;;;0.88;;
71639;SDS011;60912;48.968;10.124;2022-09-09T14:53:42;2.90;;;0.52;;
71639;SDS011;60912;48.968;10.124;2022-09-09T14:58:36;2.20;;;0.60;;
71639;SDS011;60912;48.968;10.124;2022-09-09T15:01:09;2.97;;;0.70;;
71639;SDS011;60912;48.968;10.124;2022-09-09T15:03:40;2.30;;;0.65;;
71639;SDS011;60912;48.968;10.124;2022-09-09T15:06:11;3.30;;;0.80;;
71639;SDS011;60912;48.968;10.124;2022-09-09T15:08:40;4.03;;;0.93;;
71639;SDS011;60912;48.968;10.124;2022-09-09T15:11:07;2.08;;;0.63;;
71639;SDS011;60912;48.968;10.124;2022-09-09T15:13:34;2.58;;;0.60;;
71639;SDS011;60912;48.968;10.124;2022-09-09T15:16:08;2.63;;;0.60;;
71639;SDS011;60912;48.968;10.124;2022-09-09T15:18:36;3.55;;;0.80;;
71639;SDS011;60912;48.968;10.124;2022-09-09T15:21:05;4.87;;;0.83;;
71639;SDS011;60912;48.968;10.124;2022-09-09T15:23:31;2.53;;;0.80;;
71639;SDS011;60912;48.968;10.124;2022-09-09T15:25:58;3.95;;;1.10;;
71639;SDS011;60912;48.968;10.124;2022-09-09T15:28:23;2.20;;;0.70;;
71639;SDS011;60912;48.968;10.124;2022-09-09T15:30:49;2.60;;;0.60;;
71639;SDS011;60912;48.968;10.124;2022-09-09T15:33:16;2.40;;;0.57;;
71639;SDS011;60912;48.968;10.124;2022-09-09T15:35:45;3.08;;;0.52;;
71639;SDS011;60912;48.968;10.124;2022-09-09T15:38:13;3.90;;;0.60;;
71639;SDS011;60912;48.968;10.124;2022-09-09T15:40:38;3.75;;;0.80;;
71639;SDS011;60912;48.968;10.124;2022-09-09T15:43:05;2.50;;;0.60;;
71639;SDS011;60912;48.968;10.124;2022-09-09T15:45:32;3.60;;;0.65;;
71639;SDS011;60912;48.968;10.124;2022-09-09T15:47:59;2.78;;;0.77;;
71639;SDS011;60912;48.968;10.124;2022-09-09T15:50:25;2.75;;;0.60;;
71639;SDS011;60912;48.968;10.124;2022-09-09T15:52:51;2.47;;;0.60;;
71639;SDS011;60912;48.968;10.124;2022-09-09T15:55:17;2.72;;;0.73;;
71639;SDS011;60912;48.968;10.124;2022-09-09T15:57:44;3.33;;;0.70;;
71639;SDS011;60912;48.968;10.124;2022-09-09T16:00:09;3.30;;;0.70;;
71639;SDS011;60912;48.968;10.124;2022-09-09T16:02:38;3.35;;;0.80;;
71639;SDS011;60912;48.968;10.124;2022-09-09T16:05:03;2.33;;;0.60;;
71639;SDS011;60912;48.968;10.124;2022-09-09T16:07:29;3.17;;;0.60;;
71639;SDS011;60912;48.968;10.124;2022-09-09T16:09:55;2.60;;;0.80;;
71639;SDS011;60912;48.968;10.124;2022-09-09T16:12:20;2.35;;;0.60;;
71639;SDS011;60912;48.968;10.124;2022-09-09T16:14:46;2.13;;;0.60;;
71639;SDS011;60912;48.968;10.124;2022-09-09T16:17:14;2.58;;;0.70;;
71639;SDS011;60912;48.968;10.124;2022-09-09T16:19:40;4.47;;;0.90;;
71639;SDS011;60912;48.968;10.124;2022-09-09T16:22:06;2.63;;;0.60;;
71639;SDS011;60912;48.968;10.124;2022-09-09T16:24:31;1.83;;;0.60;;
71639;SDS011;60912;48.968;10.124;2022-09-09T16:26:57;3.47;;;0.65;;
71639;SDS011;60912;48.968;10.124;2022-09-09T16:29:24;5.50;;;0.70;;
71639;SDS011;60912;48.968;10.124;2022-09-09T16:31:52;3.42;;;0.80;;
71639;SDS011;60912;48.968;10.124;2022-09-09T16:34:18;2.78;;;0.70;;
71639;SDS011;60912;48.968;10.124;2022-09-09T16:36:45;4.43;;;0.60;;
71639;SDS011;60912;48.968;10.124;2022-09-09T16:39:12;1.97;;;0.60;;
71639;SDS011;60912;48.968;10.124;2022-09-09T16:41:40;3.33;;;0.70;;
71639;SDS011;60912;48.968;10.124;2022-09-09T16:44:07;2.60;;;0.80;;
71639;SDS011;60912;48.968;10.124;2022-09-09T16:46:36;4.18;;;0.70;;
71639;SDS011;60912;48.968;10.124;2022-09-09T16:49:05;3.53;;;0.80;;
71639;SDS011;60912;48.968;10.124;2022-09-09T16:51:36;2.77;;;0.80;;
71639;SDS011;60912;48.968;10.124;2022-09-09T16:54:06;5.25;;;0.70;;
71639;SDS011;60912;48.968;10.124;2022-09-09T16:56:34;3.97;;;0.70;;
71639;SDS011;60912;48.968;10.124;2022-09-09T16:59:07;3.28;;;0.60;;
71639;SDS011;60912;48.968;10.124;2022-09-09T17:01:38;3.85;;;0.60;;
71639;SDS011;60912;48.968;10.124;2022-09-09T17:04:13;2.57;;;0.60;;
71639;SDS011;60912;48.968;10.124;2022-09-09T17:06:41;3.83;;;0.65;;
71639;SDS011;60912;48.968;10.124;2022-09-09T17:09:08;4.43;;;0.90;;
71639;SDS011;60912;48.968;10.124;2022-09-09T17:11:37;3.70;;;0.80;;
71639;SDS011;60912;48.968;10.124;2022-09-09T17:14:04;3.00;;;0.60;;
71639;SDS011;60912;48.968;10.124;2022-09-09T17:16:32;5.32;;;0.80;;
71639;SDS011;60912;48.968;10.124;2022-09-09T17:19:02;2.92;;;0.60;;
71639;SDS011;60912;48.968;10.124;2022-09-09T17:21:29;2.78;;;0.70;;
71639;SDS011;60912;48.968;10.124;2022-09-09T17:23:55;4.72;;;0.80;;
71639;SDS011;60912;48.968;10.124;2022-09-09T17:26:23;3.20;;;0.80;;
71639;SDS011;60912;48.968;10.124;2022-09-09T17:28:54;3.60;;;0.70;;
71639;SDS011;60912;48.968;10.124;2022-09-09T17:31:23;4.63;;;0.90;;
71639;SDS011;60912;48.968;10.124;2022-09-09T17:33:50;4.32;;;0.82;;
71639;SDS011;60912;48.968;10.124;2022-09-09T17:36:28;5.30;;;0.80;;
71639;SDS011;60912;48.968;10.124;2022-09-09T17:38:56;2.37;;;0.60;;
71639;SDS011;60912;48.968;10.124;2022-09-09T17:41:23;3.88;;;0.60;;